KFXY/FXY METAR and TAF weather

Enter ICAO airport designator
Station Type Date Time Source
KFXY METAR 2022/05/26 04:55 UTC NOAA

KFXY 260455Z AUTO 01008KT 10SM OVC006 10/10 A2976 RMK AO2


Station Type Date Time Source
KFXY Decoded METAR 2022/05/26 04:55 UTC NOAA

Station name not available
May 26, 2022 - 12:55 AM EDT / 2022.05.26 0455 UTC
Wind: from the N (010 degrees) at 9 MPH (8 KT):0
Visibility: 10 mile(s):0
Sky conditions: overcast
Temperature: 50 F (10 C)
Dew Point: 50 F (10 C)
Relative Humidity: 100%
Pressure (altimeter): 29.76 in. Hg (1007 hPa)
ob: KFXY 260455Z AUTO 01008KT 10SM OVC006 10/10 A2976 RMK AO2
cycle: 5

Station Type Date Time Source
KFXY TAF UTC NOAA

Error!

Example: see airport list